sensor_id;sensor_type;location;lat;lon;timestamp;P1;durP1;ratioP1;P2;durP2;ratioP2
26486;SDS011;14425;56.136;40.360;2023-04-19T00:01:37;18.38;;;8.57;;
26486;SDS011;14425;56.136;40.360;2023-04-19T00:04:03;14.75;;;8.80;;
26486;SDS011;14425;56.136;40.360;2023-04-19T00:06:29;14.48;;;8.85;;
26486;SDS011;14425;56.136;40.360;2023-04-19T00:08:56;15.35;;;9.55;;
26486;SDS011;14425;56.136;40.360;2023-04-19T00:11:23;14.35;;;8.18;;
26486;SDS011;14425;56.136;40.360;2023-04-19T00:13:49;11.88;;;8.20;;
26486;SDS011;14425;56.136;40.360;2023-04-19T00:16:14;15.75;;;8.55;;
26486;SDS011;14425;56.136;40.360;2023-04-19T00:18:40;17.17;;;7.82;;
26486;SDS011;14425;56.136;40.360;2023-04-19T00:21:06;9.65;;;7.13;;
26486;SDS011;14425;56.136;40.360;2023-04-19T00:23:33;11.20;;;7.10;;
26486;SDS011;14425;56.136;40.360;2023-04-19T00:26:02;12.45;;;7.45;;
26486;SDS011;14425;56.136;40.360;2023-04-19T00:28:28;12.23;;;7.28;;
26486;SDS011;14425;56.136;40.360;2023-04-19T00:30:55;13.77;;;6.65;;
26486;SDS011;14425;56.136;40.360;2023-04-19T00:33:20;15.13;;;7.05;;
26486;SDS011;14425;56.136;40.360;2023-04-19T00:35:46;12.05;;;7.22;;
26486;SDS011;14425;56.136;40.360;2023-04-19T00:38:11;11.40;;;7.75;;
26486;SDS011;14425;56.136;40.360;2023-04-19T00:40:37;20.63;;;8.43;;
26486;SDS011;14425;56.136;40.360;2023-04-19T00:43:03;13.05;;;8.13;;
26486;SDS011;14425;56.136;40.360;2023-04-19T00:45:28;14.75;;;8.00;;
26486;SDS011;14425;56.136;40.360;2023-04-19T00:47:55;10.63;;;7.53;;
26486;SDS011;14425;56.136;40.360;2023-04-19T00:50:20;11.23;;;7.68;;
26486;SDS011;14425;56.136;40.360;2023-04-19T00:52:47;11.00;;;7.28;;
26486;SDS011;14425;56.136;40.360;2023-04-19T00:55:12;18.60;;;8.57;;
26486;SDS011;14425;56.136;40.360;2023-04-19T00:57:38;11.68;;;7.28;;
26486;SDS011;14425;56.136;40.360;2023-04-19T01:00:04;12.45;;;8.23;;
26486;SDS011;14425;56.136;40.360;2023-04-19T01:02:32;12.15;;;7.78;;
26486;SDS011;14425;56.136;40.360;2023-04-19T01:04:58;10.88;;;6.82;;
26486;SDS011;14425;56.136;40.360;2023-04-19T01:07:23;12.50;;;7.65;;
26486;SDS011;14425;56.136;40.360;2023-04-19T01:09:49;12.82;;;8.00;;
26486;SDS011;14425;56.136;40.360;2023-04-19T01:12:15;15.20;;;7.85;;
26486;SDS011;14425;56.136;40.360;2023-04-19T01:14:40;9.57;;;7.03;;
26486;SDS011;14425;56.136;40.360;2023-04-19T01:17:06;13.45;;;7.90;;
26486;SDS011;14425;56.136;40.360;2023-04-19T01:19:33;11.00;;;7.80;;
26486;SDS011;14425;56.136;40.360;2023-04-19T01:21:59;11.40;;;7.78;;
26486;SDS011;14425;56.136;40.360;2023-04-19T01:24:27;9.48;;;6.93;;
26486;SDS011;14425;56.136;40.360;2023-04-19T01:26:52;15.48;;;7.03;;
26486;SDS011;14425;56.136;40.360;2023-04-19T01:29:18;12.52;;;7.05;;
26486;SDS011;14425;56.136;40.360;2023-04-19T01:31:46;9.95;;;6.55;;
26486;SDS011;14425;56.136;40.360;2023-04-19T01:34:15;11.45;;;7.70;;
26486;SDS011;14425;56.136;40.360;2023-04-19T01:36:41;12.75;;;7.32;;
26486;SDS011;14425;56.136;40.360;2023-04-19T01:39:06;11.05;;;6.82;;
26486;SDS011;14425;56.136;40.360;2023-04-19T01:41:32;11.40;;;7.00;;
26486;SDS011;14425;56.136;40.360;2023-04-19T01:43:57;10.27;;;6.72;;
26486;SDS011;14425;56.136;40.360;2023-04-19T01:46:24;12.80;;;7.00;;
26486;SDS011;14425;56.136;40.360;2023-04-19T01:48:50;12.50;;;7.03;;
26486;SDS011;14425;56.136;40.360;2023-04-19T01:51:15;11.52;;;7.70;;
26486;SDS011;14425;56.136;40.360;2023-04-19T01:53:41;12.75;;;7.35;;
26486;SDS011;14425;56.136;40.360;2023-04-19T01:56:07;9.05;;;6.65;;
26486;SDS011;14425;56.136;40.360;2023-04-19T01:58:32;14.85;;;7.43;;
26486;SDS011;14425;56.136;40.360;2023-04-19T02:00:58;13.27;;;7.30;;
26486;SDS011;14425;56.136;40.360;2023-04-19T02:03:23;11.15;;;6.38;;
26486;SDS011;14425;56.136;40.360;2023-04-19T02:05:49;13.48;;;7.43;;
26486;SDS011;14425;56.136;40.360;2023-04-19T02:08:14;9.70;;;6.60;;
26486;SDS011;14425;56.136;40.360;2023-04-19T02:10:40;8.18;;;6.60;;
26486;SDS011;14425;56.136;40.360;2023-04-19T02:13:06;13.75;;;7.13;;
26486;SDS011;14425;56.136;40.360;2023-04-19T02:15:31;8.10;;;6.57;;
26486;SDS011;14425;56.136;40.360;2023-04-19T02:18:17;9.93;;;6.80;;
26486;SDS011;14425;56.136;40.360;2023-04-19T02:20:42;10.07;;;6.40;;
26486;SDS011;14425;56.136;40.360;2023-04-19T02:23:08;13.73;;;6.78;;
26486;SDS011;14425;56.136;40.360;2023-04-19T02:25:33;11.50;;;7.28;;
26486;SDS011;14425;56.136;40.360;2023-04-19T02:27:59;9.82;;;6.63;;
26486;SDS011;14425;56.136;40.360;2023-04-19T02:30:24;14.70;;;7.35;;
26486;SDS011;14425;56.136;40.360;2023-04-19T02:32:50;12.05;;;6.88;;
26486;SDS011;14425;56.136;40.360;2023-04-19T02:35:16;15.35;;;7.82;;
26486;SDS011;14425;56.136;40.360;2023-04-19T02:37:41;16.02;;;7.88;;
26486;SDS011;14425;56.136;40.360;2023-04-19T02:40:08;11.98;;;7.50;;
26486;SDS011;14425;56.136;40.360;2023-04-19T02:42:33;18.35;;;8.90;;
26486;SDS011;14425;56.136;40.360;2023-04-19T02:45:00;11.18;;;6.63;;
26486;SDS011;14425;56.136;40.360;2023-04-19T02:47:30;13.03;;;7.37;;
26486;SDS011;14425;56.136;40.360;2023-04-19T02:49:55;14.07;;;7.00;;
26486;SDS011;14425;56.136;40.360;2023-04-19T02:52:21;17.00;;;8.02;;
26486;SDS011;14425;56.136;40.360;2023-04-19T02:54:47;11.02;;;7.57;;
26486;SDS011;14425;56.136;40.360;2023-04-19T02:57:12;13.20;;;8.30;;
26486;SDS011;14425;56.136;40.360;2023-04-19T02:59:37;13.50;;;7.70;;
26486;SDS011;14425;56.136;40.360;2023-04-19T03:02:03;14.35;;;7.85;;
26486;SDS011;14425;56.136;40.360;2023-04-19T03:04:29;10.10;;;6.85;;
26486;SDS011;14425;56.136;40.360;2023-04-19T03:06:55;15.80;;;7.20;;
26486;SDS011;14425;56.136;40.360;2023-04-19T03:09:20;15.63;;;7.65;;
26486;SDS011;14425;56.136;40.360;2023-04-19T03:11:46;10.02;;;6.70;;
26486;SDS011;14425;56.136;40.360;2023-04-19T03:14:12;11.98;;;7.03;;
26486;SDS011;14425;56.136;40.360;2023-04-19T03:16:37;17.90;;;7.90;;
26486;SDS011;14425;56.136;40.360;2023-04-19T03:19:03;17.65;;;8.50;;
26486;SDS011;14425;56.136;40.360;2023-04-19T03:21:28;15.07;;;7.70;;
26486;SDS011;14425;56.136;40.360;2023-04-19T03:23:54;11.68;;;7.07;;
26486;SDS011;14425;56.136;40.360;2023-04-19T03:26:20;22.58;;;12.77;;
26486;SDS011;14425;56.136;40.360;2023-04-19T03:28:45;20.67;;;8.70;;
26486;SDS011;14425;56.136;40.360;2023-04-19T03:31:11;19.05;;;7.88;;
26486;SDS011;14425;56.136;40.360;2023-04-19T03:33:36;13.88;;;7.10;;
26486;SDS011;14425;56.136;40.360;2023-04-19T03:36:02;23.15;;;7.40;;
26486;SDS011;14425;56.136;40.360;2023-04-19T03:38:28;18.23;;;6.63;;
26486;SDS011;14425;56.136;40.360;2023-04-19T03:40:53;10.05;;;6.15;;
26486;SDS011;14425;56.136;40.360;2023-04-19T03:43:20;8.50;;;5.50;;
26486;SDS011;14425;56.136;40.360;2023-04-19T03:45:46;14.40;;;5.50;;
26486;SDS011;14425;56.136;40.360;2023-04-19T03:48:11;8.70;;;5.10;;
26486;SDS011;14425;56.136;40.360;2023-04-19T03:50:37;15.95;;;5.13;;
26486;SDS011;14425;56.136;40.360;2023-04-19T03:53:03;13.95;;;5.63;;
26486;SDS011;14425;56.136;40.360;2023-04-19T03:55:29;11.52;;;5.50;;
26486;SDS011;14425;56.136;40.360;2023-04-19T03:57:55;13.88;;;4.97;;
26486;SDS011;14425;56.136;40.360;2023-04-19T04:00:21;15.15;;;5.53;;
26486;SDS011;14425;56.136;40.360;2023-04-19T04:02:46;20.30;;;5.18;;
26486;SDS011;14425;56.136;40.360;2023-04-19T04:05:12;20.63;;;5.32;;
26486;SDS011;14425;56.136;40.360;2023-04-19T04:07:38;16.80;;;5.63;;
26486;SDS011;14425;56.136;40.360;2023-04-19T04:10:03;23.35;;;6.43;;
26486;SDS011;14425;56.136;40.360;2023-04-19T04:12:29;18.85;;;6.15;;
26486;SDS011;14425;56.136;40.360;2023-04-19T04:14:55;17.05;;;6.82;;
26486;SDS011;14425;56.136;40.360;2023-04-19T04:17:20;19.38;;;6.68;;
26486;SDS011;14425;56.136;40.360;2023-04-19T04:19:48;17.13;;;6.38;;
26486;SDS011;14425;56.136;40.360;2023-04-19T04:22:15;15.40;;;5.72;;
26486;SDS011;14425;56.136;40.360;2023-04-19T04:24:41;17.83;;;6.05;;
26486;SDS011;14425;56.136;40.360;2023-04-19T04:27:07;20.65;;;5.38;;
26486;SDS011;14425;56.136;40.360;2023-04-19T04:29:34;20.30;;;5.70;;
26486;SDS011;14425;56.136;40.360;2023-04-19T04:32:05;13.35;;;5.10;;
26486;SDS011;14425;56.136;40.360;2023-04-19T04:34:33;9.98;;;5.10;;
26486;SDS011;14425;56.136;40.360;2023-04-19T04:37:00;7.95;;;4.75;;
26486;SDS011;14425;56.136;40.360;2023-04-19T04:39:25;11.82;;;5.20;;
26486;SDS011;14425;56.136;40.360;2023-04-19T04:41:51;13.63;;;5.60;;
26486;SDS011;14425;56.136;40.360;2023-04-19T04:44:17;16.45;;;5.97;;
26486;SDS011;14425;56.136;40.360;2023-04-19T04:46:44;12.40;;;5.65;;
26486;SDS011;14425;56.136;40.360;2023-04-19T04:49:10;19.23;;;5.50;;
26486;SDS011;14425;56.136;40.360;2023-04-19T04:51:35;13.32;;;4.65;;
26486;SDS011;14425;56.136;40.360;2023-04-19T04:54:01;18.35;;;5.72;;
26486;SDS011;14425;56.136;40.360;2023-04-19T04:56:27;14.18;;;5.53;;
26486;SDS011;14425;56.136;40.360;2023-04-19T04:58:52;13.70;;;5.53;;
26486;SDS011;14425;56.136;40.360;2023-04-19T05:01:18;12.25;;;4.93;;
26486;SDS011;14425;56.136;40.360;2023-04-19T05:03:45;17.73;;;5.40;;
26486;SDS011;14425;56.136;40.360;2023-04-19T05:06:11;10.93;;;5.40;;
26486;SDS011;14425;56.136;40.360;2023-04-19T05:08:36;13.93;;;5.45;;
26486;SDS011;14425;56.136;40.360;2023-04-19T05:11:02;8.45;;;5.47;;
26486;SDS011;14425;56.136;40.360;2023-04-19T05:13:27;13.32;;;5.60;;
26486;SDS011;14425;56.136;40.360;2023-04-19T05:15:53;11.30;;;5.45;;
26486;SDS011;14425;56.136;40.360;2023-04-19T05:18:19;23.90;;;6.78;;
26486;SDS011;14425;56.136;40.360;2023-04-19T05:20:44;28.85;;;5.60;;
26486;SDS011;14425;56.136;40.360;2023-04-19T05:23:10;15.23;;;4.70;;
26486;SDS011;14425;56.136;40.360;2023-04-19T05:25:36;17.73;;;5.28;;
26486;SDS011;14425;56.136;40.360;2023-04-19T05:28:02;12.70;;;4.65;;
26486;SDS011;14425;56.136;40.360;2023-04-19T05:30:28;13.63;;;4.70;;
26486;SDS011;14425;56.136;40.360;2023-04-19T05:32:53;12.90;;;4.90;;
26486;SDS011;14425;56.136;40.360;2023-04-19T05:35:19;10.32;;;4.65;;
26486;SDS011;14425;56.136;40.360;2023-04-19T05:37:45;8.35;;;4.07;;
26486;SDS011;14425;56.136;40.360;2023-04-19T05:40:11;10.48;;;4.35;;
26486;SDS011;14425;56.136;40.360;2023-04-19T05:42:37;11.88;;;4.40;;
26486;SDS011;14425;56.136;40.360;2023-04-19T05:45:03;10.80;;;4.00;;
26486;SDS011;14425;56.136;40.360;2023-04-19T05:47:30;10.93;;;4.00;;
26486;SDS011;14425;56.136;40.360;2023-04-19T05:49:56;13.10;;;5.20;;
26486;SDS011;14425;56.136;40.360;2023-04-19T05:52:21;12.48;;;4.68;;
26486;SDS011;14425;56.136;40.360;2023-04-19T05:54:47;11.05;;;4.20;;
26486;SDS011;14425;56.136;40.360;2023-04-19T05:57:12;11.95;;;4.40;;
26486;SDS011;14425;56.136;40.360;2023-04-19T05:59:38;12.70;;;4.47;;
26486;SDS011;14425;56.136;40.360;2023-04-19T06:02:04;14.00;;;4.00;;
26486;SDS011;14425;56.136;40.360;2023-04-19T06:04:29;11.30;;;3.63;;
26486;SDS011;14425;56.136;40.360;2023-04-19T06:06:55;13.63;;;5.40;;
26486;SDS011;14425;56.136;40.360;2023-04-19T06:09:20;20.75;;;4.18;;
26486;SDS011;14425;56.136;40.360;2023-04-19T06:11:46;19.90;;;4.38;;
26486;SDS011;14425;56.136;40.360;2023-04-19T06:14:12;9.98;;;4.10;;
26486;SDS011;14425;56.136;40.360;2023-04-19T06:16:38;21.45;;;4.85;;
26486;SDS011;14425;56.136;40.360;2023-04-19T06:19:04;10.70;;;3.33;;
26486;SDS011;14425;56.136;40.360;2023-04-19T06:21:32;7.80;;;3.55;;
26486;SDS011;14425;56.136;40.360;2023-04-19T06:23:57;7.60;;;3.45;;
26486;SDS011;14425;56.136;40.360;2023-04-19T06:26:23;6.68;;;3.00;;
26486;SDS011;14425;56.136;40.360;2023-04-19T06:28:48;11.55;;;3.63;;
26486;SDS011;14425;56.136;40.360;2023-04-19T06:31:14;16.58;;;4.10;;
26486;SDS011;14425;56.136;40.360;2023-04-19T06:33:40;10.43;;;3.40;;
26486;SDS011;14425;56.136;40.360;2023-04-19T06:36:05;7.18;;;3.92;;
26486;SDS011;14425;56.136;40.360;2023-04-19T06:38:31;11.02;;;3.85;;
26486;SDS011;14425;56.136;40.360;2023-04-19T06:40:56;6.55;;;3.20;;
26486;SDS011;14425;56.136;40.360;2023-04-19T06:43:22;16.60;;;4.68;;
26486;SDS011;14425;56.136;40.360;2023-04-19T06:45:48;16.75;;;3.55;;
26486;SDS011;14425;56.136;40.360;2023-04-19T06:48:14;12.38;;;4.53;;
26486;SDS011;14425;56.136;40.360;2023-04-19T06:50:39;9.07;;;3.90;;
26486;SDS011;14425;56.136;40.360;2023-04-19T06:53:05;15.18;;;3.67;;
26486;SDS011;14425;56.136;40.360;2023-04-19T06:55:30;10.93;;;3.47;;
26486;SDS011;14425;56.136;40.360;2023-04-19T06:57:56;7.28;;;2.97;;
26486;SDS011;14425;56.136;40.360;2023-04-19T07:00:22;4.85;;;3.17;;
26486;SDS011;14425;56.136;40.360;2023-04-19T07:02:50;13.10;;;3.42;;
26486;SDS011;14425;56.136;40.360;2023-04-19T07:05:16;10.00;;;3.35;;
26486;SDS011;14425;56.136;40.360;2023-04-19T07:07:42;3.85;;;3.38;;
26486;SDS011;14425;56.136;40.360;2023-04-19T07:10:10;17.40;;;3.83;;
26486;SDS011;14425;56.136;40.360;2023-04-19T07:12:37;10.38;;;3.40;;
26486;SDS011;14425;56.136;40.360;2023-04-19T07:15:03;8.05;;;3.22;;
26486;SDS011;14425;56.136;40.360;2023-04-19T07:17:57;8.93;;;3.20;;
26486;SDS011;14425;56.136;40.360;2023-04-19T07:20:22;7.53;;;3.00;;
26486;SDS011;14425;56.136;40.360;2023-04-19T07:22:48;8.02;;;3.20;;
26486;SDS011;14425;56.136;40.360;2023-04-19T07:25:16;7.38;;;2.80;;
26486;SDS011;14425;56.136;40.360;2023-04-19T07:27:42;8.57;;;2.92;;
26486;SDS011;14425;56.136;40.360;2023-04-19T07:30:07;10.73;;;3.33;;
26486;SDS011;14425;56.136;40.360;2023-04-19T07:32:33;8.07;;;2.88;;
26486;SDS011;14425;56.136;40.360;2023-04-19T07:34:59;4.57;;;2.97;;
26486;SDS011;14425;56.136;40.360;2023-04-19T07:37:25;8.68;;;2.75;;
26486;SDS011;14425;56.136;40.360;2023-04-19T07:39:50;6.45;;;2.70;;
26486;SDS011;14425;56.136;40.360;2023-04-19T07:42:16;8.57;;;2.97;;
26486;SDS011;14425;56.136;40.360;2023-04-19T07:44:41;7.38;;;2.75;;
26486;SDS011;14425;56.136;40.360;2023-04-19T07:47:07;6.90;;;2.83;;
26486;SDS011;14425;56.136;40.360;2023-04-19T07:49:33;4.50;;;2.80;;
26486;SDS011;14425;56.136;40.360;2023-04-19T07:51:59;7.22;;;3.05;;
26486;SDS011;14425;56.136;40.360;2023-04-19T07:54:26;5.60;;;2.70;;
26486;SDS011;14425;56.136;40.360;2023-04-19T07:56:52;7.57;;;3.25;;
26486;SDS011;14425;56.136;40.360;2023-04-19T07:59:17;3.67;;;2.80;;
26486;SDS011;14425;56.136;40.360;2023-04-19T08:01:46;10.43;;;2.75;;
26486;SDS011;14425;56.136;40.360;2023-04-19T08:04:13;5.07;;;2.63;;
26486;SDS011;14425;56.136;40.360;2023-04-19T08:06:38;9.98;;;3.28;;
26486;SDS011;14425;56.136;40.360;2023-04-19T08:09:04;5.18;;;3.00;;
26486;SDS011;14425;56.136;40.360;2023-04-19T08:11:29;7.82;;;3.17;;
26486;SDS011;14425;56.136;40.360;2023-04-19T08:13:55;6.00;;;3.00;;
26486;SDS011;14425;56.136;40.360;2023-04-19T08:16:21;5.85;;;3.03;;
26486;SDS011;14425;56.136;40.360;2023-04-19T08:18:47;7.68;;;3.03;;
26486;SDS011;14425;56.136;40.360;2023-04-19T08:21:15;10.20;;;3.30;;
26486;SDS011;14425;56.136;40.360;2023-04-19T08:23:41;6.43;;;2.97;;
26486;SDS011;14425;56.136;40.360;2023-04-19T08:26:07;6.22;;;3.50;;
26486;SDS011;14425;56.136;40.360;2023-04-19T08:28:33;12.65;;;4.78;;
26486;SDS011;14425;56.136;40.360;2023-04-19T08:30:58;5.43;;;3.53;;
26486;SDS011;14425;56.136;40.360;2023-04-19T08:33:24;6.30;;;3.15;;
26486;SDS011;14425;56.136;40.360;2023-04-19T08:35:49;6.53;;;2.53;;
26486;SDS011;14425;56.136;40.360;2023-04-19T08:38:15;4.80;;;2.47;;
26486;SDS011;14425;56.136;40.360;2023-04-19T08:41:02;3.25;;;2.22;;
26486;SDS011;14425;56.136;40.360;2023-04-19T08:43:27;5.95;;;2.92;;
26486;SDS011;14425;56.136;40.360;2023-04-19T08:45:57;13.00;;;3.33;;
26486;SDS011;14425;56.136;40.360;2023-04-19T08:48:23;5.28;;;2.75;;
26486;SDS011;14425;56.136;40.360;2023-04-19T08:50:51;3.03;;;2.60;;
26486;SDS011;14425;56.136;40.360;2023-04-19T08:53:18;6.35;;;3.00;;
26486;SDS011;14425;56.136;40.360;2023-04-19T08:55:43;4.15;;;2.72;;
26486;SDS011;14425;56.136;40.360;2023-04-19T08:58:10;5.85;;;2.80;;
26486;SDS011;14425;56.136;40.360;2023-04-19T09:00:38;8.63;;;3.67;;
26486;SDS011;14425;56.136;40.360;2023-04-19T09:03:07;4.30;;;2.88;;
26486;SDS011;14425;56.136;40.360;2023-04-19T09:05:35;7.68;;;2.65;;
26486;SDS011;14425;56.136;40.360;2023-04-19T09:08:20;4.88;;;2.80;;
26486;SDS011;14425;56.136;40.360;2023-04-19T09:11:00;8.45;;;3.60;;
26486;SDS011;14425;56.136;40.360;2023-04-19T09:13:29;7.15;;;2.83;;
26486;SDS011;14425;56.136;40.360;2023-04-19T09:15:54;5.32;;;2.85;;
26486;SDS011;14425;56.136;40.360;2023-04-19T09:18:27;16.13;;;4.30;;
26486;SDS011;14425;56.136;40.360;2023-04-19T09:20:52;5.32;;;2.97;;
26486;SDS011;14425;56.136;40.360;2023-04-19T09:23:22;4.72;;;2.45;;
26486;SDS011;14425;56.136;40.360;2023-04-19T09:26:10;8.02;;;2.78;;
26486;SDS011;14425;56.136;40.360;2023-04-19T09:28:37;13.25;;;3.53;;
26486;SDS011;14425;56.136;40.360;2023-04-19T09:31:09;7.72;;;3.05;;
26486;SDS011;14425;56.136;40.360;2023-04-19T09:33:38;7.72;;;2.92;;
26486;SDS011;14425;56.136;40.360;2023-04-19T09:36:04;4.15;;;2.88;;
26486;SDS011;14425;56.136;40.360;2023-04-19T09:38:47;3.25;;;2.42;;
26486;SDS011;14425;56.136;40.360;2023-04-19T09:41:13;5.18;;;2.70;;
26486;SDS011;14425;56.136;40.360;2023-04-19T09:43:39;4.72;;;2.58;;
26486;SDS011;14425;56.136;40.360;2023-04-19T09:46:04;3.28;;;2.70;;
26486;SDS011;14425;56.136;40.360;2023-04-19T09:48:30;4.05;;;2.15;;
26486;SDS011;14425;56.136;40.360;2023-04-19T09:50:59;2.85;;;2.47;;
26486;SDS011;14425;56.136;40.360;2023-04-19T09:53:26;7.07;;;2.50;;
26486;SDS011;14425;56.136;40.360;2023-04-19T09:55:53;3.25;;;2.45;;
26486;SDS011;14425;56.136;40.360;2023-04-19T09:58:19;5.93;;;2.63;;
26486;SDS011;14425;56.136;40.360;2023-04-19T10:00:46;2.95;;;2.47;;
26486;SDS011;14425;56.136;40.360;2023-04-19T10:03:13;2.33;;;2.13;;
26486;SDS011;14425;56.136;40.360;2023-04-19T10:05:41;9.95;;;2.50;;
26486;SDS011;14425;56.136;40.360;2023-04-19T10:08:07;6.15;;;2.35;;
26486;SDS011;14425;56.136;40.360;2023-04-19T10:10:34;3.03;;;2.20;;
26486;SDS011;14425;56.136;40.360;2023-04-19T10:13:05;10.32;;;3.53;;
26486;SDS011;14425;56.136;40.360;2023-04-19T10:15:42;5.25;;;2.97;;
26486;SDS011;14425;56.136;40.360;2023-04-19T10:18:09;5.82;;;3.15;;
26486;SDS011;14425;56.136;40.360;2023-04-19T10:23:28;10.13;;;3.08;;
26486;SDS011;14425;56.136;40.360;2023-04-19T10:25:56;4.85;;;2.15;;
26486;SDS011;14425;56.136;40.360;2023-04-19T10:28:22;5.22;;;2.45;;
26486;SDS011;14425;56.136;40.360;2023-04-19T10:30:51;4.07;;;2.40;;
26486;SDS011;14425;56.136;40.360;2023-04-19T10:33:28;6.32;;;2.97;;
26486;SDS011;14425;56.136;40.360;2023-04-19T10:35:56;5.57;;;2.58;;
26486;SDS011;14425;56.136;40.360;2023-04-19T10:41:09;3.50;;;2.30;;
26486;SDS011;14425;56.136;40.360;2023-04-19T10:44:26;3.55;;;1.95;;
26486;SDS011;14425;56.136;40.360;2023-04-19T10:46:36;5.18;;;2.05;;
26486;SDS011;14425;56.136;40.360;2023-04-19T10:49:04;4.47;;;2.45;;
26486;SDS011;14425;56.136;40.360;2023-04-19T10:51:33;5.40;;;2.38;;
26486;SDS011;14425;56.136;40.360;2023-04-19T10:54:03;3.22;;;1.77;;
26486;SDS011;14425;56.136;40.360;2023-04-19T11:01:38;4.35;;;1.90;;
26486;SDS011;14425;56.136;40.360;2023-04-19T11:09:27;4.60;;;1.90;;
26486;SDS011;14425;56.136;40.360;2023-04-19T11:12:00;6.72;;;2.63;;
26486;SDS011;14425;56.136;40.360;2023-04-19T11:14:32;5.93;;;2.47;;
26486;SDS011;14425;56.136;40.360;2023-04-19T11:17:12;4.38;;;2.10;;
26486;SDS011;14425;56.136;40.360;2023-04-19T11:19:41;3.50;;;2.08;;
26486;SDS011;14425;56.136;40.360;2023-04-19T11:22:08;6.32;;;3.42;;
26486;SDS011;14425;56.136;40.360;2023-04-19T11:24:34;2.75;;;2.20;;
26486;SDS011;14425;56.136;40.360;2023-04-19T11:27:00;8.07;;;2.67;;
26486;SDS011;14425;56.136;40.360;2023-04-19T11:29:32;4.93;;;2.13;;
26486;SDS011;14425;56.136;40.360;2023-04-19T11:31:58;6.97;;;1.95;;
26486;SDS011;14425;56.136;40.360;2023-04-19T11:34:24;1.95;;;1.67;;
26486;SDS011;14425;56.136;40.360;2023-04-19T11:36:50;6.97;;;2.22;;
26486;SDS011;14425;56.136;40.360;2023-04-19T11:39:17;7.15;;;2.00;;
26486;SDS011;14425;56.136;40.360;2023-04-19T11:41:43;6.43;;;2.17;;
26486;SDS011;14425;56.136;40.360;2023-04-19T11:44:12;4.53;;;2.00;;
26486;SDS011;14425;56.136;40.360;2023-04-19T11:46:38;3.17;;;2.13;;
26486;SDS011;14425;56.136;40.360;2023-04-19T11:49:04;9.75;;;3.92;;
26486;SDS011;14425;56.136;40.360;2023-04-19T11:51:29;7.43;;;3.67;;
26486;SDS011;14425;56.136;40.360;2023-04-19T11:53:55;4.38;;;2.15;;
26486;SDS011;14425;56.136;40.360;2023-04-19T11:56:21;2.63;;;1.90;;
26486;SDS011;14425;56.136;40.360;2023-04-19T11:58:47;4.80;;;1.80;;
26486;SDS011;14425;56.136;40.360;2023-04-19T12:01:14;5.80;;;2.33;;
26486;SDS011;14425;56.136;40.360;2023-04-19T12:03:44;3.67;;;1.92;;
26486;SDS011;14425;56.136;40.360;2023-04-19T12:08:50;5.28;;;1.98;;
26486;SDS011;14425;56.136;40.360;2023-04-19T12:11:18;5.10;;;2.10;;
26486;SDS011;14425;56.136;40.360;2023-04-19T12:13:55;2.65;;;2.20;;
26486;SDS011;14425;56.136;40.360;2023-04-19T12:16:39;2.97;;;2.10;;
26486;SDS011;14425;56.136;40.360;2023-04-19T12:19:11;3.08;;;2.35;;
26486;SDS011;14425;56.136;40.360;2023-04-19T12:21:42;2.20;;;1.83;;
26486;SDS011;14425;56.136;40.360;2023-04-19T12:24:08;2.65;;;2.05;;
26486;SDS011;14425;56.136;40.360;2023-04-19T12:26:34;3.85;;;2.45;;
26486;SDS011;14425;56.136;40.360;2023-04-19T12:29:01;27.17;;;3.30;;
26486;SDS011;14425;56.136;40.360;2023-04-19T12:31:29;3.30;;;2.33;;
26486;SDS011;14425;56.136;40.360;2023-04-19T12:33:56;6.45;;;2.83;;
26486;SDS011;14425;56.136;40.360;2023-04-19T12:36:22;6.63;;;2.80;;
26486;SDS011;14425;56.136;40.360;2023-04-19T12:38:47;4.55;;;3.22;;
26486;SDS011;14425;56.136;40.360;2023-04-19T12:41:13;4.20;;;2.20;;
26486;SDS011;14425;56.136;40.360;2023-04-19T12:43:38;6.28;;;2.65;;
26486;SDS011;14425;56.136;40.360;2023-04-19T12:46:04;3.38;;;1.95;;
26486;SDS011;14425;56.136;40.360;2023-04-19T12:48:29;2.13;;;1.92;;
26486;SDS011;14425;56.136;40.360;2023-04-19T12:50:55;5.40;;;2.80;;
26486;SDS011;14425;56.136;40.360;2023-04-19T12:53:21;5.95;;;1.92;;
26486;SDS011;14425;56.136;40.360;2023-04-19T12:55:48;4.20;;;2.03;;
26486;SDS011;14425;56.136;40.360;2023-04-19T12:58:14;12.43;;;2.15;;
26486;SDS011;14425;56.136;40.360;2023-04-19T13:00:41;3.70;;;2.25;;
26486;SDS011;14425;56.136;40.360;2023-04-19T13:03:07;3.15;;;2.25;;
26486;SDS011;14425;56.136;40.360;2023-04-19T13:05:33;5.97;;;3.60;;
26486;SDS011;14425;56.136;40.360;2023-04-19T13:07:58;3.72;;;2.33;;
26486;SDS011;14425;56.136;40.360;2023-04-19T13:10:24;3.03;;;2.33;;
26486;SDS011;14425;56.136;40.360;2023-04-19T13:12:50;6.38;;;4.03;;
26486;SDS011;14425;56.136;40.360;2023-04-19T13:15:16;9.07;;;4.93;;
26486;SDS011;14425;56.136;40.360;2023-04-19T13:17:42;6.85;;;3.88;;
26486;SDS011;14425;56.136;40.360;2023-04-19T13:20:07;3.80;;;3.33;;
26486;SDS011;14425;56.136;40.360;2023-04-19T13:22:34;13.02;;;2.72;;
26486;SDS011;14425;56.136;40.360;2023-04-19T13:24:59;5.35;;;2.45;;
26486;SDS011;14425;56.136;40.360;2023-04-19T13:27:25;3.90;;;2.20;;
26486;SDS011;14425;56.136;40.360;2023-04-19T13:29:54;7.60;;;2.60;;
26486;SDS011;14425;56.136;40.360;2023-04-19T13:32:20;3.42;;;3.13;;
26486;SDS011;14425;56.136;40.360;2023-04-19T13:34:46;4.72;;;2.15;;
26486;SDS011;14425;56.136;40.360;2023-04-19T13:37:12;8.68;;;3.58;;
26486;SDS011;14425;56.136;40.360;2023-04-19T13:39:37;5.07;;;2.45;;
26486;SDS011;14425;56.136;40.360;2023-04-19T13:42:03;7.13;;;2.33;;
26486;SDS011;14425;56.136;40.360;2023-04-19T13:44:29;4.85;;;2.45;;
26486;SDS011;14425;56.136;40.360;2023-04-19T13:46:55;5.10;;;2.42;;
26486;SDS011;14425;56.136;40.360;2023-04-19T13:49:21;5.68;;;2.80;;
26486;SDS011;14425;56.136;40.360;2023-04-19T13:51:46;5.55;;;2.50;;
26486;SDS011;14425;56.136;40.360;2023-04-19T13:54:12;5.30;;;2.60;;
26486;SDS011;14425;56.136;40.360;2023-04-19T13:56:37;4.88;;;2.78;;
26486;SDS011;14425;56.136;40.360;2023-04-19T13:59:03;4.82;;;3.65;;
26486;SDS011;14425;56.136;40.360;2023-04-19T14:01:28;4.55;;;2.55;;
26486;SDS011;14425;56.136;40.360;2023-04-19T14:03:54;6.45;;;2.85;;
26486;SDS011;14425;56.136;40.360;2023-04-19T14:06:20;7.03;;;2.85;;
26486;SDS011;14425;56.136;40.360;2023-04-19T14:08:45;4.65;;;2.65;;
26486;SDS011;14425;56.136;40.360;2023-04-19T14:11:11;5.38;;;2.33;;
26486;SDS011;14425;56.136;40.360;2023-04-19T14:13:36;17.45;;;3.95;;
26486;SDS011;14425;56.136;40.360;2023-04-19T14:16:02;6.18;;;2.53;;
26486;SDS011;14425;56.136;40.360;2023-04-19T14:18:28;4.63;;;2.60;;
26486;SDS011;14425;56.136;40.360;2023-04-19T14:20:54;8.77;;;3.35;;
26486;SDS011;14425;56.136;40.360;2023-04-19T14:23:19;9.82;;;3.22;;
26486;SDS011;14425;56.136;40.360;2023-04-19T14:25:45;19.27;;;4.53;;
26486;SDS011;14425;56.136;40.360;2023-04-19T14:28:11;11.20;;;4.53;;
26486;SDS011;14425;56.136;40.360;2023-04-19T14:30:37;4.70;;;3.38;;
26486;SDS011;14425;56.136;40.360;2023-04-19T14:33:03;3.72;;;2.80;;
26486;SDS011;14425;56.136;40.360;2023-04-19T14:35:29;6.65;;;2.47;;
26486;SDS011;14425;56.136;40.360;2023-04-19T14:37:55;7.25;;;2.70;;
26486;SDS011;14425;56.136;40.360;2023-04-19T14:40:54;3.50;;;3.10;;
26486;SDS011;14425;56.136;40.360;2023-04-19T14:43:20;5.72;;;2.65;;
26486;SDS011;14425;56.136;40.360;2023-04-19T14:45:49;5.45;;;3.33;;